首页
METAR-TAF:

METAR-TAF

机场 :

Riverton Regional Airport

Riverton, 怀俄明州, 美国

纬度: 43-03-43N, 经度: 108-26-47W, 海拔: 1684米

当前天气观测

该预报发布于1小时和0分钟前的19:53 UTC
风速19节,风向西,有时为32节阵风
温度 17°C
湿度 20%
气压 1013 hPa
能見度: 16.1公里
天空无云

METAR: KRIW 071953Z AUTO 28019G32KT 10SM CLR 17/M06 A2992 RMK AO2 PK WND 25038/1923 SLP105 T01671061

时间: 14:53 (20:53 UTC)

预报

该预报发布于2小时和58分钟前的17:55 UTC
预报有效从07日的 18点(UTC)到 08日的 18点(UTC)
风速20节,风向西,有时为30节阵风
能見度: 10公里
散云层高于10000英尺
从 08日的 0300点(UTC)
风速15节,风向西转西北,有时为25节阵风
能見度: 10公里
少量云层高于11000英尺
散云层高于20000英尺
从 08日的 1100点(UTC)
风速12节,风向西北
能見度: 10公里
散云层高于7000英尺
多云层高于12000英尺
从 08日的 1600点(UTC)
风速8节,风向北转东北
能見度: 10公里
散云层高于10000英尺

TAF: KRIW 071755Z 0718/0818 27020G30KT P6SM SCT100 FM080300 29015G25KT P6SM FEW110 SCT200 FM081100 31012KT P6SM SCT070 BKN120 FM081600 03008KT P6SM SCT100

超过4000个机场的气象观测和天气预报(METAR&TAF报告)。

可查询的气象台以黄色和红色小点在地图上表示。

将鼠标移到小点上方,可查看气象台名称。

然后点击查看天气观测和预报。

如需切换地图:点击带黑十字的绿色按钮放大地图;点击带横线的绿色按钮缩小地图;或者点击绿色箭头查看邻近地区的地图。


METAR-TAF: